createdAt,value
2022-11-16T00:00:23.945Z,100363.53
2022-11-16T00:01:28.200Z,100363.05
2022-11-16T00:02:32.626Z,100362.27
2022-11-16T00:03:37.008Z,100366.48
2022-11-16T00:04:41.278Z,100356.02
2022-11-16T00:05:45.547Z,100357.58
2022-11-16T00:06:50.004Z,100359.44
2022-11-16T00:07:54.428Z,100359.85
2022-11-16T00:08:58.770Z,100356.35
2022-11-16T00:10:03.025Z,100360.86
2022-11-16T00:11:09.713Z,100358.25
2022-11-16T00:12:13.996Z,100358.25
2022-11-16T00:13:18.237Z,100354.56
2022-11-16T00:14:22.512Z,100352.56
2022-11-16T00:15:26.820Z,100356.58
2022-11-16T00:16:31.377Z,100365.28
2022-11-16T00:17:35.643Z,100361.19
2022-11-16T00:18:39.949Z,100360.03
2022-11-16T00:19:44.246Z,100368.3
2022-11-16T00:20:48.517Z,100355.58
2022-11-16T00:21:52.775Z,100357.59
2022-11-16T00:22:57.051Z,100358.44
2022-11-16T00:24:01.338Z,100349.55
2022-11-16T00:25:05.631Z,100348.54
2022-11-16T00:26:09.891Z,100351.06
2022-11-16T00:27:14.204Z,100349.2
2022-11-16T00:28:18.459Z,100355
2022-11-16T00:29:22.759Z,100348.05
2022-11-16T00:30:27.019Z,100351.55
2022-11-16T00:31:31.314Z,100350.21
2022-11-16T00:32:35.598Z,100343.78
2022-11-16T00:33:39.854Z,100351.33
2022-11-16T00:34:44.148Z,100346.05
2022-11-16T00:35:48.408Z,100350.47
2022-11-16T00:36:52.714Z,100355.91
2022-11-16T00:37:57.010Z,100348.8
2022-11-16T00:39:01.309Z,100359.17
2022-11-16T00:40:05.614Z,100351.99
2022-11-16T00:41:09.876Z,100350.32
2022-11-16T00:42:14.125Z,100356.16
2022-11-16T00:43:18.469Z,100351.33
2022-11-16T00:44:22.739Z,100357.02
2022-11-16T00:45:27.271Z,100361.52
2022-11-16T00:46:31.596Z,100364.8
2022-11-16T00:47:35.888Z,100365.45
2022-11-16T00:48:40.204Z,100361.78
2022-11-16T00:49:44.526Z,100366.73
2022-11-16T00:50:48.803Z,100365.98
2022-11-16T00:51:53.085Z,100360.52
2022-11-16T00:52:57.322Z,100360.1
2022-11-16T00:54:01.576Z,100360.17
2022-11-16T00:55:05.857Z,100355.27
2022-11-16T00:56:10.116Z,100352.92
2022-11-16T00:57:14.404Z,100356.01
2022-11-16T00:58:18.652Z,100351.14
2022-11-16T00:59:22.903Z,100343.36
2022-11-16T01:00:27.152Z,100347.64
2022-11-16T01:01:31.600Z,100345.63
2022-11-16T01:02:36.140Z,100348.27
2022-11-16T01:03:40.397Z,100349.69
2022-11-16T01:04:45.728Z,100360.7
2022-11-16T01:05:49.991Z,100362.03
2022-11-16T01:06:54.430Z,100357.02
2022-11-16T01:07:58.848Z,100360.77
2022-11-16T01:09:03.250Z,100355.67
2022-11-16T01:10:07.558Z,100357.72
2022-11-16T01:11:11.805Z,100355.45
2022-11-16T01:12:16.087Z,100353.81
2022-11-16T01:13:20.371Z,100354.25
2022-11-16T01:14:24.634Z,100352.73
2022-11-16T01:15:29.061Z,100354.59
2022-11-16T01:16:33.335Z,100351.24
2022-11-16T01:17:37.606Z,100340.23
2022-11-16T01:18:41.903Z,100344.77
2022-11-16T01:19:46.228Z,100346.3
2022-11-16T01:20:50.550Z,100343.73
2022-11-16T01:21:54.805Z,100342.06
2022-11-16T01:22:59.064Z,100348.2
2022-11-16T01:24:03.352Z,100341.02
2022-11-16T01:25:07.639Z,100351.44
2022-11-16T01:26:11.915Z,100347.34
2022-11-16T01:27:16.254Z,100347.42
2022-11-16T01:28:20.531Z,100345.59
2022-11-16T01:29:24.797Z,100344.55
2022-11-16T01:30:29.070Z,100345.33
2022-11-16T01:31:33.339Z,100338.97
2022-11-16T01:32:37.604Z,100343.92
2022-11-16T01:33:41.885Z,100340.9
2022-11-16T01:34:46.186Z,100332.02
2022-11-16T01:35:50.444Z,100337.81
2022-11-16T01:36:54.968Z,100338.37
2022-11-16T01:37:59.219Z,100335.13
2022-11-16T01:39:03.521Z,100331.67
2022-11-16T01:40:07.801Z,100325.91
2022-11-16T01:41:12.142Z,100327.44
2022-11-16T01:42:16.410Z,100326.84
2022-11-16T01:43:20.696Z,100329.19
2022-11-16T01:44:24.998Z,100329.11
2022-11-16T01:45:29.249Z,100326.58
2022-11-16T01:46:33.514Z,100333.72
2022-11-16T01:47:37.761Z,100321.22
2022-11-16T01:48:42.244Z,100323.56
2022-11-16T01:49:46.633Z,100328.44
2022-11-16T01:50:50.955Z,100321.23
2022-11-16T01:51:55.320Z,100325.91
2022-11-16T01:52:59.598Z,100321.3
2022-11-16T01:54:03.855Z,100322.75
2022-11-16T01:55:08.129Z,100317.95
2022-11-16T01:56:12.409Z,100319.81
2022-11-16T01:57:16.721Z,100316.62
2022-11-16T01:58:20.965Z,100329.67
2022-11-16T01:59:25.217Z,100310.11
2022-11-16T02:00:29.467Z,100319.14
2022-11-16T02:01:33.829Z,100318.73
2022-11-16T02:02:38.124Z,100313.86
2022-11-16T02:03:42.403Z,100313.53
2022-11-16T02:04:46.672Z,100307.91
2022-11-16T02:05:50.967Z,100308.25
2022-11-16T02:06:55.376Z,100310.52
2022-11-16T02:07:59.751Z,100303.48
2022-11-16T02:09:05.108Z,100310.03
2022-11-16T02:10:09.379Z,100309.17
2022-11-16T02:11:13.621Z,100314.27
2022-11-16T02:12:17.885Z,100310.7
2022-11-16T02:13:22.135Z,100311.19
2022-11-16T02:14:26.401Z,100307.09
2022-11-16T02:15:30.659Z,100310.84
2022-11-16T02:16:34.952Z,100310.44
2022-11-16T02:17:39.213Z,100306.27
2022-11-16T02:18:43.453Z,100308.17
2022-11-16T02:19:47.698Z,100300.98
2022-11-16T02:20:52.031Z,100301.99
2022-11-16T02:21:56.311Z,100299.91
2022-11-16T02:23:00.575Z,100300.98
2022-11-16T02:24:04.882Z,100298.05
2022-11-16T02:25:09.171Z,100307.08
2022-11-16T02:26:13.480Z,100299.65
2022-11-16T02:27:20.885Z,100296.23
2022-11-16T02:28:25.164Z,100298.56
2022-11-16T02:29:29.411Z,100298.46
2022-11-16T02:30:33.676Z,100298.56
2022-11-16T02:31:37.950Z,100292.62
2022-11-16T02:32:42.223Z,100301.4
2022-11-16T02:33:46.474Z,100300.39
2022-11-16T02:34:50.787Z,100295.89
2022-11-16T02:35:55.095Z,100294.97
2022-11-16T02:36:59.411Z,100290.09
2022-11-16T02:38:03.683Z,100292.95
2022-11-16T02:39:07.998Z,100295.38
2022-11-16T02:40:12.287Z,100293.21
2022-11-16T02:41:16.585Z,100298.13
2022-11-16T02:42:20.865Z,100295.29
2022-11-16T02:43:25.126Z,100295.7
2022-11-16T02:44:29.376Z,100291.42
2022-11-16T02:45:33.783Z,100290.69
2022-11-16T02:46:38.079Z,100291.87
2022-11-16T02:47:42.337Z,100287.08
2022-11-16T02:48:46.593Z,100287.52
2022-11-16T02:49:50.864Z,100291.42
2022-11-16T02:50:55.163Z,100285.66
2022-11-16T02:51:59.490Z,100284.17
2022-11-16T02:53:03.766Z,100286.84
2022-11-16T02:54:08.049Z,100293.28
2022-11-16T02:55:12.379Z,100285.59
2022-11-16T02:56:16.647Z,100290.2
2022-11-16T02:57:20.926Z,100292.77
2022-11-16T02:58:25.217Z,100293.21
2022-11-16T02:59:29.504Z,100286.85
2022-11-16T03:00:34.063Z,100295.63
2022-11-16T03:01:40.835Z,100289.52
2022-11-16T03:02:45.096Z,100295.96
2022-11-16T03:03:49.394Z,100291.77
2022-11-16T03:04:53.685Z,100294.55
2022-11-16T03:05:57.944Z,100292.61
2022-11-16T03:07:02.334Z,100294.87
2022-11-16T03:08:06.688Z,100298.3
2022-11-16T03:09:10.981Z,100298.78
2022-11-16T03:10:15.261Z,100293.69
2022-11-16T03:11:19.524Z,100297.3
2022-11-16T03:12:24.086Z,100291.02
2022-11-16T03:13:28.328Z,100297.3
2022-11-16T03:14:32.671Z,100293.77
2022-11-16T03:15:37.098Z,100295.96
2022-11-16T03:16:41.354Z,100292.02
2022-11-16T03:17:45.599Z,100294.95
2022-11-16T03:18:49.873Z,100298.71
2022-11-16T03:19:54.164Z,100297.89
2022-11-16T03:20:58.437Z,100293.02
2022-11-16T03:22:02.747Z,100293.95
2022-11-16T03:23:07.004Z,100297.22
2022-11-16T03:24:11.250Z,100298.13
2022-11-16T03:25:15.531Z,100298.37
2022-11-16T03:26:19.784Z,100294.77
2022-11-16T03:27:24.093Z,100297.03
2022-11-16T03:28:28.364Z,100305.4
2022-11-16T03:29:32.613Z,100290.08
2022-11-16T03:30:36.913Z,100291.69
2022-11-16T03:31:41.176Z,100298.37
2022-11-16T03:32:45.530Z,100292.02
2022-11-16T03:33:49.825Z,100288.59
2022-11-16T03:34:54.115Z,100284.06
2022-11-16T03:35:58.408Z,100289.41
2022-11-16T03:37:02.692Z,100282.39
2022-11-16T03:38:06.989Z,100281.16
2022-11-16T03:39:11.262Z,100277.21
2022-11-16T03:40:15.546Z,100281.9
2022-11-16T03:41:19.840Z,100280.63
2022-11-16T03:42:24.129Z,100284.09
2022-11-16T03:43:28.446Z,100280.08
2022-11-16T03:44:32.862Z,100276.8
2022-11-16T03:45:37.118Z,100278.38
2022-11-16T03:46:41.364Z,100271.78
2022-11-16T03:47:45.637Z,100276.06
2022-11-16T03:48:49.918Z,100272.34
2022-11-16T03:49:54.168Z,100277.29
2022-11-16T03:50:58.494Z,100276.36
2022-11-16T03:52:02.785Z,100274.28
2022-11-16T03:53:07.052Z,100274.95
2022-11-16T03:54:11.306Z,100276.06
2022-11-16T03:55:15.568Z,100274.8
2022-11-16T03:56:19.841Z,100268.84
2022-11-16T03:57:24.131Z,100272.45
2022-11-16T03:58:28.386Z,100265.34
2022-11-16T03:59:35.423Z,100268.59
2022-11-16T04:00:39.782Z,100271.19
2022-11-16T04:01:46.026Z,100261.08
2022-11-16T04:02:50.473Z,100263.31
2022-11-16T04:03:54.879Z,100269.59
2022-11-16T04:04:59.485Z,100273.04
2022-11-16T04:06:03.781Z,100268.09
2022-11-16T04:07:08.227Z,100260.47
2022-11-16T04:08:12.626Z,100269.84
2022-11-16T04:09:16.893Z,100260.06
2022-11-16T04:10:21.196Z,100261.06
2022-11-16T04:11:25.469Z,100255.7
2022-11-16T04:12:29.769Z,100256.19
2022-11-16T04:13:34.018Z,100252.17
2022-11-16T04:14:38.318Z,100258.64
2022-11-16T04:15:42.675Z,100261.4
2022-11-16T04:16:46.934Z,100249.84
2022-11-16T04:17:51.195Z,100254.37
2022-11-16T04:18:55.458Z,100254.19
2022-11-16T04:19:59.708Z,100257.86
2022-11-16T04:21:03.978Z,100256.12
2022-11-16T04:22:08.235Z,100244.59
2022-11-16T04:23:12.501Z,100247.34
2022-11-16T04:24:16.793Z,100249.36
2022-11-16T04:25:21.096Z,100245.75
2022-11-16T04:26:25.373Z,100244.26
2022-11-16T04:27:29.660Z,100240.06
2022-11-16T04:28:34.727Z,100241.06
2022-11-16T04:29:39.751Z,100235.56
2022-11-16T04:30:44.034Z,100243.08
2022-11-16T04:31:48.338Z,100236.39
2022-11-16T04:32:52.608Z,100235.05
2022-11-16T04:33:56.894Z,100232.89
2022-11-16T04:35:01.150Z,100226.42
2022-11-16T04:36:05.416Z,100231.37
2022-11-16T04:37:09.711Z,100230.95
2022-11-16T04:38:13.999Z,100228.69
2022-11-16T04:39:18.311Z,100228.28
2022-11-16T04:40:22.577Z,100228.43
2022-11-16T04:41:26.850Z,100230.55
2022-11-16T04:42:31.145Z,100225.19
2022-11-16T04:43:35.407Z,100229.62
2022-11-16T04:44:39.704Z,100224.27
2022-11-16T04:45:44.006Z,100215.23
2022-11-16T04:46:48.281Z,100215.64
2022-11-16T04:47:52.549Z,100217.58
2022-11-16T04:48:56.833Z,100218.06
2022-11-16T04:50:01.162Z,100217.23
2022-11-16T04:51:05.466Z,100220.84
2022-11-16T04:52:09.746Z,100210.36
2022-11-16T04:53:14.022Z,100219.73
2022-11-16T04:54:18.548Z,100207.2
2022-11-16T04:55:22.860Z,100214.38
2022-11-16T04:56:29.424Z,100209.36
2022-11-16T04:57:33.711Z,100205.94
2022-11-16T04:58:38.106Z,100203.44
2022-11-16T04:59:42.382Z,100207.28
2022-11-16T05:00:46.805Z,100201.52
2022-11-16T05:01:51.246Z,100201.84
2022-11-16T05:03:02.124Z,100196.49
2022-11-16T05:04:06.392Z,100202.52
2022-11-16T05:05:10.631Z,100195.08
2022-11-16T05:06:14.930Z,100204
2022-11-16T05:07:19.380Z,100194.7
2022-11-16T05:08:23.799Z,100204.09
2022-11-16T05:09:28.060Z,100196.53
2022-11-16T05:10:32.309Z,100191.35
2022-11-16T05:11:36.579Z,100191.09
2022-11-16T05:12:40.879Z,100183.3
2022-11-16T05:13:45.177Z,100187.8
2022-11-16T05:14:49.431Z,100186.13
2022-11-16T05:15:53.707Z,100177.39
2022-11-16T05:16:57.991Z,100177.72
2022-11-16T05:18:02.278Z,100182.98
2022-11-16T05:19:06.559Z,100181.38
2022-11-16T05:20:10.838Z,100180.7
2022-11-16T05:21:15.104Z,100183.11
2022-11-16T05:22:19.400Z,100181.84
2022-11-16T05:23:23.646Z,100181.48
2022-11-16T05:24:30.429Z,100180.06
2022-11-16T05:25:37.981Z,100186.34
2022-11-16T05:26:42.267Z,100182.66
2022-11-16T05:27:46.520Z,100182.73
2022-11-16T05:28:50.744Z,100182.05
2022-11-16T05:29:55.010Z,100186.08
2022-11-16T05:30:59.266Z,100184.47
2022-11-16T05:32:03.535Z,100186.66
2022-11-16T05:33:07.813Z,100184.8
2022-11-16T05:34:12.075Z,100189.89
2022-11-16T05:35:16.355Z,100180.51
2022-11-16T05:36:20.661Z,100186.2
2022-11-16T05:37:24.974Z,100183.44
2022-11-16T05:38:29.237Z,100187.05
2022-11-16T05:39:33.592Z,100184.29
2022-11-16T05:40:37.896Z,100178.41
2022-11-16T05:41:42.219Z,100178.25
2022-11-16T05:42:46.499Z,100187.19
2022-11-16T05:43:50.757Z,100188.53
2022-11-16T05:44:55.026Z,100187.88
2022-11-16T05:45:59.294Z,100188.39
2022-11-16T05:47:03.546Z,100194.24
2022-11-16T05:48:07.816Z,100185.87
2022-11-16T05:49:12.086Z,100192.43
2022-11-16T05:50:16.361Z,100189.09
2022-11-16T05:51:20.612Z,100187.69
2022-11-16T05:52:24.949Z,100193.61
2022-11-16T05:53:29.220Z,100189.78
2022-11-16T05:54:33.589Z,100186.84
2022-11-16T05:55:37.855Z,100188.53
2022-11-16T05:56:42.242Z,100184.38
2022-11-16T05:57:46.516Z,100184.64
2022-11-16T05:58:50.794Z,100182.64
2022-11-16T05:59:55.068Z,100181.98
2022-11-16T06:00:59.392Z,100187.82
2022-11-16T06:02:03.746Z,100186.34
2022-11-16T06:03:08.159Z,100187.84
2022-11-16T06:04:12.790Z,100183.16
2022-11-16T06:05:17.089Z,100190.38
2022-11-16T06:06:21.368Z,100184.84
2022-11-16T06:07:25.760Z,100186.36
2022-11-16T06:08:30.139Z,100184.69
2022-11-16T06:09:34.841Z,100187.72
2022-11-16T06:10:39.119Z,100186.45
2022-11-16T06:11:43.381Z,100184.3
2022-11-16T06:12:47.700Z,100188.98
2022-11-16T06:13:51.976Z,100192.83
2022-11-16T06:14:56.256Z,100191.27
2022-11-16T06:16:00.510Z,100190
2022-11-16T06:17:04.789Z,100191.69
2022-11-16T06:18:09.132Z,100188.94
2022-11-16T06:19:13.395Z,100184.06
2022-11-16T06:20:17.642Z,100195.71
2022-11-16T06:21:21.893Z,100194.97
2022-11-16T06:22:26.123Z,100194.19
2022-11-16T06:23:30.447Z,100195.53
2022-11-16T06:24:34.716Z,100187.2
2022-11-16T06:25:38.999Z,100183.74
2022-11-16T06:26:43.248Z,100197.65
2022-11-16T06:27:47.795Z,100196.58
2022-11-16T06:28:52.093Z,100197.58
2022-11-16T06:29:56.390Z,100194.38
2022-11-16T06:31:00.657Z,100194.38
2022-11-16T06:32:04.943Z,100193.37
2022-11-16T06:33:09.193Z,100194.38
2022-11-16T06:34:13.433Z,100194.91
2022-11-16T06:35:17.712Z,100198.25
2022-11-16T06:36:21.996Z,100196.47
2022-11-16T06:37:26.281Z,100200.59
2022-11-16T06:38:30.603Z,100199.31
2022-11-16T06:39:35.441Z,100197.85
2022-11-16T06:40:39.748Z,100200.37
2022-11-16T06:41:44.023Z,100191.2
2022-11-16T06:42:48.300Z,100197.4
2022-11-16T06:43:52.560Z,100198.89
2022-11-16T06:44:56.849Z,100202.56
2022-11-16T06:46:01.120Z,100193.92
2022-11-16T06:47:05.402Z,100195.78
2022-11-16T06:48:09.709Z,100194.45
2022-11-16T06:49:13.957Z,100192.17
2022-11-16T06:50:18.229Z,100195.78
2022-11-16T06:51:22.493Z,100192.36
2022-11-16T06:52:26.892Z,100195.2
2022-11-16T06:53:31.184Z,100196.31
2022-11-16T06:54:35.495Z,100185.34
2022-11-16T06:55:39.849Z,100198.41
2022-11-16T06:56:44.160Z,100189.3
2022-11-16T06:57:48.444Z,100189.86
2022-11-16T06:58:54.663Z,100190.87
2022-11-16T06:59:58.933Z,100198.58
2022-11-16T07:01:03.221Z,100196.49
2022-11-16T07:02:07.624Z,100193.56
2022-11-16T07:03:12.009Z,100193.23
2022-11-16T07:04:16.303Z,100197.84
2022-11-16T07:05:20.880Z,100194.94
2022-11-16T07:06:25.146Z,100196.28
2022-11-16T07:07:29.630Z,100190.07
2022-11-16T07:08:34.844Z,100195.61
2022-11-16T07:09:39.750Z,100197.19
2022-11-16T07:10:44.023Z,100199.98
2022-11-16T07:11:48.290Z,100195.63
2022-11-16T07:12:52.562Z,100203
2022-11-16T07:13:56.857Z,100200.98
2022-11-16T07:15:01.143Z,100194.11
2022-11-16T07:16:05.401Z,100192.44
2022-11-16T07:17:10.875Z,100195.72
2022-11-16T07:18:15.141Z,100187.34
2022-11-16T07:19:19.426Z,100189.95
2022-11-16T07:20:23.965Z,100193.71
2022-11-16T07:21:28.238Z,100201.67
2022-11-16T07:22:32.512Z,100200.41
2022-11-16T07:23:36.788Z,100197.14
2022-11-16T07:24:41.069Z,100194.64
2022-11-16T07:25:45.457Z,100198.14
2022-11-16T07:26:49.749Z,100196.06
2022-11-16T07:27:54.001Z,100194.57
2022-11-16T07:28:58.294Z,100193.56
2022-11-16T07:30:02.545Z,100201.98
2022-11-16T07:31:06.965Z,100196.11
2022-11-16T07:32:11.224Z,100194.62
2022-11-16T07:33:15.527Z,100205.41
2022-11-16T07:34:19.798Z,100207.16
2022-11-16T07:35:24.066Z,100199.13
2022-11-16T07:36:29.419Z,100203.06
2022-11-16T07:37:33.688Z,100204.48
2022-11-16T07:38:38.093Z,100200.06
2022-11-16T07:39:42.428Z,100199.64
2022-11-16T07:40:46.728Z,100198.83
2022-11-16T07:41:50.995Z,100189.94
2022-11-16T07:42:55.250Z,100194.7
2022-11-16T07:43:59.521Z,100198.23
2022-11-16T07:45:03.838Z,100199.13
2022-11-16T07:46:47.344Z,100197.22
2022-11-16T07:47:52.393Z,100197.73
2022-11-16T07:48:56.692Z,100205.42
2022-11-16T07:50:01.052Z,100206.41
2022-11-16T07:51:05.354Z,100206.47
2022-11-16T07:52:09.666Z,100209.95
2022-11-16T07:53:13.928Z,100200
2022-11-16T07:54:18.204Z,100211.72
2022-11-16T07:55:22.452Z,100204.83
2022-11-16T07:56:26.768Z,100199.73
2022-11-16T07:57:31.060Z,100192.84
2022-11-16T07:58:36.213Z,100195.52
2022-11-16T07:59:40.664Z,100194.36
2022-11-16T08:00:44.948Z,100195.78
2022-11-16T08:01:49.424Z,100200.81
2022-11-16T08:02:53.940Z,100202.83
2022-11-16T08:03:58.255Z,100198.55
2022-11-16T08:05:02.596Z,100200.08
2022-11-16T08:06:09.916Z,100202.42
2022-11-16T08:07:14.297Z,100199.01
2022-11-16T08:08:18.741Z,100203.78
2022-11-16T08:09:23.073Z,100198.58
2022-11-16T08:10:27.530Z,100197.09
2022-11-16T08:11:31.983Z,100199.44
2022-11-16T08:12:36.264Z,100188.8
2022-11-16T08:13:40.645Z,100196.5
2022-11-16T08:14:44.960Z,100191.66
2022-11-16T08:15:49.256Z,100192.67
2022-11-16T08:16:53.564Z,100194.61
2022-11-16T08:17:57.832Z,100197.52
2022-11-16T08:19:02.142Z,100193.61
2022-11-16T08:20:06.630Z,100192.42
2022-11-16T08:21:10.910Z,100194.77
2022-11-16T08:22:15.601Z,100199.54
2022-11-16T08:23:19.977Z,100192.77
2022-11-16T08:24:24.247Z,100192.63
2022-11-16T08:25:28.509Z,100195.38
2022-11-16T08:26:32.801Z,100199.98
2022-11-16T08:27:37.069Z,100194.38
2022-11-16T08:28:41.378Z,100192.78
2022-11-16T08:29:45.658Z,100191.7
2022-11-16T08:30:54.614Z,100194.57
2022-11-16T08:31:58.942Z,100193.77
2022-11-16T08:33:03.214Z,100191.68
2022-11-16T08:34:07.507Z,100194.44
2022-11-16T08:35:11.870Z,100189.27
2022-11-16T08:36:16.619Z,100200.72
2022-11-16T08:37:20.893Z,100197.3
2022-11-16T08:38:25.220Z,100199.13
2022-11-16T08:39:29.494Z,100190.6
2022-11-16T08:40:33.760Z,100193.77
2022-11-16T08:41:38.032Z,100201.91
2022-11-16T08:42:44.978Z,100203.25
2022-11-16T08:43:49.313Z,100204.06
2022-11-16T08:44:53.597Z,100196.22
2022-11-16T08:45:57.910Z,100196.11
2022-11-16T08:47:02.211Z,100199.64
2022-11-16T08:48:06.509Z,100204.41
2022-11-16T08:49:10.790Z,100199.39
2022-11-16T08:50:15.057Z,100204.07
2022-11-16T08:51:21.301Z,100202.66
2022-11-16T08:52:27.143Z,100205.19
2022-11-16T08:53:31.415Z,100195.56
2022-11-16T08:54:35.714Z,100200.91
2022-11-16T08:55:39.971Z,100196.56
2022-11-16T08:56:44.266Z,100199.8
2022-11-16T08:57:49.595Z,100201.12
2022-11-16T08:58:59.690Z,100196.8
2022-11-16T09:00:04.058Z,100200.98
2022-11-16T09:01:08.323Z,100206.41
2022-11-16T09:02:12.734Z,100207.81
2022-11-16T09:03:17.119Z,100204.52
2022-11-16T09:04:21.451Z,100210.61
2022-11-16T09:05:25.731Z,100211.61
2022-11-16T09:06:30.002Z,100210.11
2022-11-16T09:07:34.551Z,100209.44
2022-11-16T09:08:39.020Z,100211.27
2022-11-16T09:09:43.352Z,100202.08
2022-11-16T09:10:47.629Z,100208.66
2022-11-16T09:11:52.031Z,100208.77
2022-11-16T09:12:56.320Z,100203.98
2022-11-16T09:14:00.598Z,100205.51
2022-11-16T09:15:04.870Z,100205.69
2022-11-16T09:16:09.157Z,100208.86
2022-11-16T09:17:14.275Z,100207.27
2022-11-16T09:18:26.262Z,100207.2
2022-11-16T09:19:30.539Z,100202.36
2022-11-16T09:20:34.848Z,100209.55
2022-11-16T09:21:39.109Z,100214.66
2022-11-16T09:22:43.376Z,100214.58
2022-11-16T09:23:47.648Z,100208.15
2022-11-16T09:24:51.966Z,100207.33
2022-11-16T09:25:56.267Z,100203.47
2022-11-16T09:27:00.597Z,100203.21
2022-11-16T09:28:04.878Z,100206.89
2022-11-16T09:29:09.127Z,100205.55
2022-11-16T09:30:13.423Z,100209.84
2022-11-16T09:31:24.184Z,100209.91
2022-11-16T09:32:28.530Z,100216.13
2022-11-16T09:33:33.666Z,100207.09
2022-11-16T09:34:38.691Z,100206.84
2022-11-16T09:35:43.029Z,100210.19
2022-11-16T09:36:47.353Z,100210.37
2022-11-16T09:37:51.657Z,100200.34
2022-11-16T09:39:31.565Z,100207.16
2022-11-16T09:40:36.203Z,100208.03
2022-11-16T09:41:40.500Z,100204.66
2022-11-16T09:42:44.842Z,100208.59
2022-11-16T09:43:49.121Z,100204.14
2022-11-16T09:44:53.401Z,100209.16
2022-11-16T09:45:57.715Z,100202.24
2022-11-16T09:47:01.984Z,100200.98
2022-11-16T09:48:06.245Z,100205.92
2022-11-16T09:49:18.523Z,100199.38
2022-11-16T09:50:22.826Z,100201.91
2022-11-16T09:51:27.193Z,100197.97
2022-11-16T09:52:33.710Z,100193.1
2022-11-16T09:53:39.008Z,100196.37
2022-11-16T09:54:43.710Z,100198.91
2022-11-16T09:55:47.966Z,100196.71
2022-11-16T09:56:52.257Z,100184.66
2022-11-16T09:57:56.502Z,100187.27
2022-11-16T09:59:00.783Z,100187.52
2022-11-16T10:00:05.053Z,100183.58
2022-11-16T10:01:09.625Z,100183.58
2022-11-16T10:02:14.024Z,100185
2022-11-16T10:03:18.369Z,100179.91
2022-11-16T10:04:22.680Z,100183.77
2022-11-16T10:05:26.954Z,100182.84
2022-11-16T10:06:31.276Z,100181.84
2022-11-16T10:07:35.705Z,100187.02
2022-11-16T10:08:40.062Z,100182.25
2022-11-16T10:09:44.357Z,100178.89
2022-11-16T10:10:48.717Z,100185.52
2022-11-16T10:11:56.003Z,100180.23
2022-11-16T10:13:00.266Z,100180.81
2022-11-16T10:14:05.544Z,100188.42
2022-11-16T10:15:09.951Z,100187.48
2022-11-16T10:16:14.329Z,100188.72
2022-11-16T10:17:18.604Z,100180.48
2022-11-16T10:18:22.886Z,100179.91
2022-11-16T10:19:27.173Z,100181.72
2022-11-16T10:20:32.337Z,100187.55
2022-11-16T10:21:36.664Z,100183.45
2022-11-16T10:22:41.087Z,100181.11
2022-11-16T10:23:45.415Z,100181.11
2022-11-16T10:24:49.704Z,100180.63
2022-11-16T10:25:53.970Z,100187.89
2022-11-16T10:26:58.278Z,100184.13
2022-11-16T10:28:02.615Z,100182.3
2022-11-16T10:29:07.044Z,100185.06
2022-11-16T10:30:11.368Z,100184.92
2022-11-16T10:31:15.691Z,100186.42
2022-11-16T10:32:20.090Z,100179.13
2022-11-16T10:33:24.371Z,100177.38
2022-11-16T10:34:28.660Z,100175.98
2022-11-16T10:35:32.937Z,100176.58
2022-11-16T10:36:37.246Z,100168.28
2022-11-16T10:37:41.514Z,100172.46
2022-11-16T10:38:45.818Z,100168.63
2022-11-16T10:39:50.077Z,100176.41
2022-11-16T10:40:54.378Z,100168.23
2022-11-16T10:42:02.063Z,100179.1
2022-11-16T10:43:11.205Z,100174.75
2022-11-16T10:44:17.991Z,100174.94
2022-11-16T10:45:22.288Z,100169.73
2022-11-16T10:46:26.562Z,100173.09
2022-11-16T10:47:34.986Z,100167.32
2022-11-16T10:48:39.351Z,100167.51
2022-11-16T10:49:43.670Z,100165.5
2022-11-16T10:50:47.981Z,100157.73
2022-11-16T10:51:52.278Z,100166.52
2022-11-16T10:52:56.549Z,100165.25
2022-11-16T10:54:00.897Z,100155.47
2022-11-16T10:55:08.329Z,100163.17
2022-11-16T10:56:12.620Z,100166.11
2022-11-16T10:57:17.042Z,100163.51
2022-11-16T10:58:21.302Z,100162.32
2022-11-16T10:59:25.594Z,100164.26
2022-11-16T11:00:29.987Z,100165.31
2022-11-16T11:01:34.378Z,100155.61
2022-11-16T11:02:38.690Z,100157.47
2022-11-16T11:03:42.983Z,100163.64
2022-11-16T11:04:47.239Z,100155.27
2022-11-16T11:05:51.519Z,100151.85
2022-11-16T11:06:56.077Z,100151.44
2022-11-16T11:08:01.918Z,100152.7
2022-11-16T11:09:06.199Z,100147.34
2022-11-16T11:10:10.494Z,100155.13
2022-11-16T11:11:14.782Z,100155.22
2022-11-16T11:12:19.123Z,100154.14
2022-11-16T11:13:23.433Z,100154.4
2022-11-16T11:14:27.734Z,100147.38
2022-11-16T11:15:32.025Z,100152.98
2022-11-16T11:16:36.310Z,100149.39
2022-11-16T11:17:40.636Z,100142.88
2022-11-16T11:18:44.917Z,100143.89
2022-11-16T11:19:49.207Z,100147.57
2022-11-16T11:20:53.520Z,100139.03
2022-11-16T11:21:57.869Z,100154.08
2022-11-16T11:23:02.187Z,100154.34
2022-11-16T11:24:44.959Z,100156.68
2022-11-16T11:25:49.669Z,100153.75
2022-11-16T11:26:53.956Z,100155.01
2022-11-16T11:27:59.510Z,100155.75
2022-11-16T11:29:03.817Z,100158.77
2022-11-16T11:30:08.078Z,100163.84
2022-11-16T11:31:12.361Z,100158.91
2022-11-16T11:32:24.351Z,100156.98
2022-11-16T11:33:28.994Z,100158.2
2022-11-16T11:34:33.305Z,100160.14
2022-11-16T11:35:37.592Z,100148.73
2022-11-16T11:36:41.887Z,100150.8
2022-11-16T11:37:46.136Z,100153
2022-11-16T11:38:50.733Z,100156.17
2022-11-16T11:39:55.122Z,100149.45
2022-11-16T11:40:59.425Z,100148.45
2022-11-16T11:42:03.686Z,100145.91
2022-11-16T11:43:07.960Z,100143.8
2022-11-16T11:44:12.227Z,100143.02
2022-11-16T11:45:16.479Z,100142.88
2022-11-16T11:46:20.758Z,100141.28
2022-11-16T11:47:59.488Z,100142.14
2022-11-16T11:49:04.264Z,100143.97
2022-11-16T11:50:08.529Z,100142.16
2022-11-16T11:51:12.829Z,100142.98
2022-11-16T11:52:17.098Z,100140.31
2022-11-16T11:53:21.365Z,100137.81
2022-11-16T11:54:25.666Z,100138.5
2022-11-16T11:55:29.947Z,100141.78
2022-11-16T11:56:34.287Z,100136.58
2022-11-16T11:57:38.568Z,100134.01
2022-11-16T11:58:42.845Z,100137.36
2022-11-16T11:59:47.174Z,100141.54
2022-11-16T12:00:51.460Z,100135.52
2022-11-16T12:01:55.730Z,100145.09
2022-11-16T12:03:00.189Z,100130.43
2022-11-16T12:04:04.607Z,100133.94
2022-11-16T12:05:08.882Z,100133.72
2022-11-16T12:06:13.173Z,100127.02
2022-11-16T12:07:17.562Z,100136.15
2022-11-16T12:08:21.922Z,100134.55
2022-11-16T12:09:26.209Z,100135.08
2022-11-16T12:10:30.503Z,100137.34
2022-11-16T12:11:37.046Z,100137.5
2022-11-16T12:12:41.314Z,100134.16
2022-11-16T12:13:45.588Z,100138.36
2022-11-16T12:14:49.849Z,100130.33
2022-11-16T12:15:54.125Z,100130.08
2022-11-16T12:16:58.419Z,100129
2022-11-16T12:18:02.703Z,100126.81
2022-11-16T12:19:07.058Z,100126.14
2022-11-16T12:20:11.309Z,100128.42